sensor_id;sensor_type;location;lat;lon;timestamp;pressure;altitude;pressure_sealevel;temperature;humidity
60589;BME280;46421;48.610;9.334;2022-12-26T00:01:25;98047.91;;;5.77;100.00
60589;BME280;46421;48.610;9.334;2022-12-26T00:03:51;98042.25;;;5.72;100.00
60589;BME280;46421;48.610;9.334;2022-12-26T00:06:23;98048.59;;;5.79;100.00
60589;BME280;46421;48.610;9.334;2022-12-26T00:08:49;98047.91;;;5.77;100.00
60589;BME280;46421;48.610;9.334;2022-12-26T00:11:15;98050.09;;;5.82;100.00
60589;BME280;46421;48.610;9.334;2022-12-26T00:13:41;98053.53;;;5.92;100.00
60589;BME280;46421;48.610;9.334;2022-12-26T00:16:08;98047.13;;;5.95;100.00
60589;BME280;46421;48.610;9.334;2022-12-26T00:18:35;98043.00;;;5.92;100.00
60589;BME280;46421;48.610;9.334;2022-12-26T00:21:00;98043.81;;;6.03;100.00
60589;BME280;46421;48.610;9.334;2022-12-26T00:23:25;98041.84;;;5.95;100.00
60589;BME280;46421;48.610;9.334;2022-12-26T00:25:51;98033.59;;;5.80;100.00
60589;BME280;46421;48.610;9.334;2022-12-26T00:28:16;98038.69;;;5.63;100.00
60589;BME280;46421;48.610;9.334;2022-12-26T00:30:42;98040.31;;;5.64;100.00
60589;BME280;46421;48.610;9.334;2022-12-26T00:33:07;98041.38;;;5.81;100.00
60589;BME280;46421;48.610;9.334;2022-12-26T00:35:32;98039.44;;;5.74;100.00
60589;BME280;46421;48.610;9.334;2022-12-26T00:37:57;98037.41;;;5.67;100.00
60589;BME280;46421;48.610;9.334;2022-12-26T00:40:23;98047.69;;;5.61;100.00
60589;BME280;46421;48.610;9.334;2022-12-26T00:42:48;98051.13;;;5.71;100.00
60589;BME280;46421;48.610;9.334;2022-12-26T00:45:14;98050.31;;;5.61;100.00
60589;BME280;46421;48.610;9.334;2022-12-26T00:47:39;98044.00;;;5.81;100.00
60589;BME280;46421;48.610;9.334;2022-12-26T00:50:05;98044.81;;;5.54;100.00
60589;BME280;46421;48.610;9.334;2022-12-26T00:52:30;98042.91;;;5.36;100.00
60589;BME280;46421;48.610;9.334;2022-12-26T00:54:55;98038.03;;;5.42;100.00
60589;BME280;46421;48.610;9.334;2022-12-26T00:57:21;98039.53;;;5.54;100.00
60589;BME280;46421;48.610;9.334;2022-12-26T00:59:46;98037.13;;;5.61;100.00
60589;BME280;46421;48.610;9.334;2022-12-26T01:02:11;98036.72;;;5.65;100.00
60589;BME280;46421;48.610;9.334;2022-12-26T01:04:55;98043.38;;;5.69;100.00
60589;BME280;46421;48.610;9.334;2022-12-26T01:07:21;98053.66;;;5.63;100.00
60589;BME280;46421;48.610;9.334;2022-12-26T01:09:46;98039.59;;;5.72;100.00
60589;BME280;46421;48.610;9.334;2022-12-26T01:12:11;98028.16;;;5.53;100.00
60589;BME280;46421;48.610;9.334;2022-12-26T01:14:37;98030.69;;;5.45;100.00
60589;BME280;46421;48.610;9.334;2022-12-26T01:17:02;98039.44;;;5.46;100.00
60589;BME280;46421;48.610;9.334;2022-12-26T01:19:27;98032.91;;;5.40;100.00
60589;BME280;46421;48.610;9.334;2022-12-26T01:21:53;98036.84;;;5.26;100.00
60589;BME280;46421;48.610;9.334;2022-12-26T01:24:18;98049.59;;;5.31;100.00
60589;BME280;46421;48.610;9.334;2022-12-26T01:26:43;98047.69;;;5.23;100.00
60589;BME280;46421;48.610;9.334;2022-12-26T01:29:10;98053.84;;;5.42;100.00
60589;BME280;46421;48.610;9.334;2022-12-26T01:31:35;98055.25;;;5.46;100.00
60589;BME280;46421;48.610;9.334;2022-12-26T01:34:01;98051.25;;;5.32;100.00
60589;BME280;46421;48.610;9.334;2022-12-26T01:36:26;98047.09;;;5.29;100.00
60589;BME280;46421;48.610;9.334;2022-12-26T01:38:51;98041.69;;;5.31;100.00
60589;BME280;46421;48.610;9.334;2022-12-26T01:41:17;98044.44;;;5.39;100.00
60589;BME280;46421;48.610;9.334;2022-12-26T01:46:21;98054.94;;;5.49;100.00
60589;BME280;46421;48.610;9.334;2022-12-26T01:48:48;98053.16;;;5.49;100.00
60589;BME280;46421;48.610;9.334;2022-12-26T01:51:15;98051.88;;;5.63;100.00
60589;BME280;46421;48.610;9.334;2022-12-26T01:53:45;98057.28;;;5.62;100.00
60589;BME280;46421;48.610;9.334;2022-12-26T01:56:14;98055.72;;;5.69;100.00
60589;BME280;46421;48.610;9.334;2022-12-26T01:59:10;98057.59;;;5.86;100.00
60589;BME280;46421;48.610;9.334;2022-12-26T02:01:41;98067.31;;;5.86;100.00
60589;BME280;46421;48.610;9.334;2022-12-26T02:04:11;98066.03;;;5.62;100.00
60589;BME280;46421;48.610;9.334;2022-12-26T02:06:59;98056.44;;;5.61;100.00
60589;BME280;46421;48.610;9.334;2022-12-26T02:09:26;98067.47;;;5.37;100.00
60589;BME280;46421;48.610;9.334;2022-12-26T02:12:05;98063.50;;;5.23;100.00
60589;BME280;46421;48.610;9.334;2022-12-26T02:14:32;98051.28;;;5.22;100.00
60589;BME280;46421;48.610;9.334;2022-12-26T02:16:57;98051.69;;;5.27;100.00
60589;BME280;46421;48.610;9.334;2022-12-26T02:19:46;98045.16;;;5.21;100.00
60589;BME280;46421;48.610;9.334;2022-12-26T02:28:06;98025.72;;;5.42;100.00
60589;BME280;46421;48.610;9.334;2022-12-26T02:34:02;98024.47;;;5.74;100.00
60589;BME280;46421;48.610;9.334;2022-12-26T02:36:55;98035.13;;;5.82;100.00
60589;BME280;46421;48.610;9.334;2022-12-26T02:45:15;98057.41;;;5.98;100.00
60589;BME280;46421;48.610;9.334;2022-12-26T02:48:11;98049.94;;;5.83;100.00
60589;BME280;46421;48.610;9.334;2022-12-26T02:50:53;98063.69;;;5.87;100.00
60589;BME280;46421;48.610;9.334;2022-12-26T02:54:14;98057.44;;;5.88;100.00
60589;BME280;46421;48.610;9.334;2022-12-26T02:57:07;98054.06;;;5.96;100.00
60589;BME280;46421;48.610;9.334;2022-12-26T02:59:56;98056.63;;;5.88;100.00
60589;BME280;46421;48.610;9.334;2022-12-26T03:03:02;98071.75;;;5.85;100.00
60589;BME280;46421;48.610;9.334;2022-12-26T03:05:51;98064.09;;;5.92;100.00
60589;BME280;46421;48.610;9.334;2022-12-26T03:08:42;98059.25;;;5.88;100.00
60589;BME280;46421;48.610;9.334;2022-12-26T03:11:32;98063.66;;;5.97;100.00
60589;BME280;46421;48.610;9.334;2022-12-26T03:14:43;98065.44;;;5.96;100.00
60589;BME280;46421;48.610;9.334;2022-12-26T03:17:08;98064.75;;;6.04;100.00
60589;BME280;46421;48.610;9.334;2022-12-26T03:19:58;98052.91;;;6.08;100.00
60589;BME280;46421;48.610;9.334;2022-12-26T03:24:56;98055.38;;;6.20;100.00
60589;BME280;46421;48.610;9.334;2022-12-26T03:27:40;98053.34;;;6.31;100.00
60589;BME280;46421;48.610;9.334;2022-12-26T03:30:06;98051.41;;;6.33;100.00
60589;BME280;46421;48.610;9.334;2022-12-26T03:32:51;98049.41;;;6.36;100.00
60589;BME280;46421;48.610;9.334;2022-12-26T03:35:17;98036.91;;;6.38;100.00
60589;BME280;46421;48.610;9.334;2022-12-26T03:37:54;98039.38;;;6.39;100.00
60589;BME280;46421;48.610;9.334;2022-12-26T03:40:35;98030.50;;;6.40;100.00
60589;BME280;46421;48.610;9.334;2022-12-26T03:49:26;98015.94;;;6.54;100.00
60589;BME280;46421;48.610;9.334;2022-12-26T03:55:54;98024.22;;;6.77;100.00
60589;BME280;46421;48.610;9.334;2022-12-26T04:01:33;98035.78;;;6.76;100.00
60589;BME280;46421;48.610;9.334;2022-12-26T04:04:19;98042.19;;;6.74;100.00
60589;BME280;46421;48.610;9.334;2022-12-26T04:07:10;98037.22;;;6.71;100.00
60589;BME280;46421;48.610;9.334;2022-12-26T04:10:02;98048.06;;;6.68;100.00
60589;BME280;46421;48.610;9.334;2022-12-26T04:12:49;98055.84;;;6.69;100.00
60589;BME280;46421;48.610;9.334;2022-12-26T04:15:47;98059.34;;;6.70;100.00
60589;BME280;46421;48.610;9.334;2022-12-26T04:21:46;98059.84;;;6.73;100.00
60589;BME280;46421;48.610;9.334;2022-12-26T04:24:43;98052.22;;;6.70;100.00
60589;BME280;46421;48.610;9.334;2022-12-26T04:27:28;98061.19;;;6.77;100.00
60589;BME280;46421;48.610;9.334;2022-12-26T04:30:14;98060.91;;;6.80;100.00
60589;BME280;46421;48.610;9.334;2022-12-26T04:33:09;98060.22;;;6.78;100.00
60589;BME280;46421;48.610;9.334;2022-12-26T04:36:00;98053.81;;;6.81;100.00
60589;BME280;46421;48.610;9.334;2022-12-26T04:38:52;98063.25;;;6.84;100.00
60589;BME280;46421;48.610;9.334;2022-12-26T04:41:38;98067.41;;;6.86;100.00
60589;BME280;46421;48.610;9.334;2022-12-26T04:44:24;98072.06;;;6.92;100.00
60589;BME280;46421;48.610;9.334;2022-12-26T04:46:52;98069.59;;;6.91;100.00
60589;BME280;46421;48.610;9.334;2022-12-26T04:49:18;98068.47;;;6.93;100.00
60589;BME280;46421;48.610;9.334;2022-12-26T04:52:11;98063.84;;;6.95;100.00
60589;BME280;46421;48.610;9.334;2022-12-26T04:54:37;98060.38;;;6.95;100.00
60589;BME280;46421;48.610;9.334;2022-12-26T04:57:03;98065.81;;;6.93;100.00
60589;BME280;46421;48.610;9.334;2022-12-26T04:59:28;98056.75;;;6.96;100.00
60589;BME280;46421;48.610;9.334;2022-12-26T05:01:54;98054.09;;;6.96;100.00
60589;BME280;46421;48.610;9.334;2022-12-26T05:04:38;98067.84;;;7.00;100.00
60589;BME280;46421;48.610;9.334;2022-12-26T05:07:27;98078.31;;;7.09;100.00
60589;BME280;46421;48.610;9.334;2022-12-26T05:10:18;98081.41;;;7.05;100.00
60589;BME280;46421;48.610;9.334;2022-12-26T05:12:44;98078.47;;;7.08;100.00
60589;BME280;46421;48.610;9.334;2022-12-26T05:15:10;98073.28;;;6.98;100.00
60589;BME280;46421;48.610;9.334;2022-12-26T05:17:35;98068.19;;;7.05;100.00
60589;BME280;46421;48.610;9.334;2022-12-26T05:20:19;98062.72;;;6.98;100.00
60589;BME280;46421;48.610;9.334;2022-12-26T05:22:54;98049.88;;;7.03;100.00
60589;BME280;46421;48.610;9.334;2022-12-26T05:25:41;98048.19;;;7.02;100.00
60589;BME280;46421;48.610;9.334;2022-12-26T05:28:26;98042.22;;;7.18;100.00
60589;BME280;46421;48.610;9.334;2022-12-26T05:31:11;98036.47;;;7.23;100.00
60589;BME280;46421;48.610;9.334;2022-12-26T05:33:37;98031.78;;;7.17;100.00
60589;BME280;46421;48.610;9.334;2022-12-26T05:36:24;98030.28;;;7.14;100.00
60589;BME280;46421;48.610;9.334;2022-12-26T05:38:49;98034.34;;;7.26;100.00
60589;BME280;46421;48.610;9.334;2022-12-26T05:41:16;98038.16;;;7.32;100.00
60589;BME280;46421;48.610;9.334;2022-12-26T05:43:41;98025.09;;;7.31;100.00
60589;BME280;46421;48.610;9.334;2022-12-26T05:46:07;98025.97;;;7.39;100.00
60589;BME280;46421;48.610;9.334;2022-12-26T05:48:32;98024.50;;;7.45;100.00
60589;BME280;46421;48.610;9.334;2022-12-26T05:50:59;98025.72;;;7.51;100.00
60589;BME280;46421;48.610;9.334;2022-12-26T05:53:24;98035.66;;;7.57;100.00
60589;BME280;46421;48.610;9.334;2022-12-26T05:55:50;98029.69;;;7.55;100.00
60589;BME280;46421;48.610;9.334;2022-12-26T05:58:15;98033.34;;;7.54;100.00
60589;BME280;46421;48.610;9.334;2022-12-26T06:00:40;98045.41;;;7.56;100.00
60589;BME280;46421;48.610;9.334;2022-12-26T06:03:06;98037.66;;;7.63;100.00
60589;BME280;46421;48.610;9.334;2022-12-26T06:05:31;98047.59;;;7.61;100.00
60589;BME280;46421;48.610;9.334;2022-12-26T06:07:56;98055.66;;;7.59;100.00
60589;BME280;46421;48.610;9.334;2022-12-26T06:10:22;98069.38;;;7.55;100.00
60589;BME280;46421;48.610;9.334;2022-12-26T06:12:47;98063.38;;;7.44;100.00
60589;BME280;46421;48.610;9.334;2022-12-26T06:15:13;98057.22;;;7.44;100.00
60589;BME280;46421;48.610;9.334;2022-12-26T06:17:38;98059.38;;;7.40;100.00
60589;BME280;46421;48.610;9.334;2022-12-26T06:20:04;98062.34;;;7.37;100.00
60589;BME280;46421;48.610;9.334;2022-12-26T06:22:30;98064.31;;;7.35;100.00
60589;BME280;46421;48.610;9.334;2022-12-26T06:24:55;98051.91;;;7.36;100.00
60589;BME280;46421;48.610;9.334;2022-12-26T06:27:20;98058.53;;;7.40;100.00
60589;BME280;46421;48.610;9.334;2022-12-26T06:29:46;98056.06;;;7.38;100.00
60589;BME280;46421;48.610;9.334;2022-12-26T06:32:11;98058.31;;;7.33;100.00
60589;BME280;46421;48.610;9.334;2022-12-26T06:34:37;98071.41;;;7.35;100.00
60589;BME280;46421;48.610;9.334;2022-12-26T06:37:02;98066.31;;;7.41;100.00
60589;BME280;46421;48.610;9.334;2022-12-26T06:39:27;98064.66;;;7.40;100.00
60589;BME280;46421;48.610;9.334;2022-12-26T06:41:53;98071.94;;;7.38;100.00
60589;BME280;46421;48.610;9.334;2022-12-26T06:44:18;98072.59;;;7.40;100.00
60589;BME280;46421;48.610;9.334;2022-12-26T06:46:43;98074.94;;;7.43;100.00
60589;BME280;46421;48.610;9.334;2022-12-26T06:49:09;98070.69;;;7.51;100.00
60589;BME280;46421;48.610;9.334;2022-12-26T06:51:34;98067.31;;;7.75;100.00
60589;BME280;46421;48.610;9.334;2022-12-26T06:54:00;98065.16;;;8.13;100.00
60589;BME280;46421;48.610;9.334;2022-12-26T06:56:30;98062.44;;;8.31;100.00
60589;BME280;46421;48.610;9.334;2022-12-26T06:58:58;98065.03;;;8.74;98.44
60589;BME280;46421;48.610;9.334;2022-12-26T07:01:25;98063.38;;;8.90;96.04
60589;BME280;46421;48.610;9.334;2022-12-26T07:03:52;98072.31;;;8.89;96.69
60589;BME280;46421;48.610;9.334;2022-12-26T07:06:27;98060.22;;;9.02;94.88
60589;BME280;46421;48.610;9.334;2022-12-26T07:08:57;98063.84;;;9.26;92.18
60589;BME280;46421;48.610;9.334;2022-12-26T07:11:25;98065.19;;;9.30;91.83
60589;BME280;46421;48.610;9.334;2022-12-26T07:13:52;98063.53;;;9.13;92.73
60589;BME280;46421;48.610;9.334;2022-12-26T07:16:18;98064.53;;;9.20;92.01
60589;BME280;46421;48.610;9.334;2022-12-26T07:18:43;98050.44;;;9.28;91.31
60589;BME280;46421;48.610;9.334;2022-12-26T07:21:11;98061.19;;;9.26;91.22
60589;BME280;46421;48.610;9.334;2022-12-26T07:23:37;98056.03;;;9.41;89.70
60589;BME280;46421;48.610;9.334;2022-12-26T07:26:03;98061.19;;;9.43;89.55
60589;BME280;46421;48.610;9.334;2022-12-26T07:28:29;98063.50;;;9.38;90.92
60589;BME280;46421;48.610;9.334;2022-12-26T07:30:54;98058.19;;;9.46;89.00
60589;BME280;46421;48.610;9.334;2022-12-26T07:33:22;98061.03;;;9.44;89.64
60589;BME280;46421;48.610;9.334;2022-12-26T07:35:47;98063.19;;;9.41;89.97
60589;BME280;46421;48.610;9.334;2022-12-26T07:38:13;98055.56;;;9.38;90.22
60589;BME280;46421;48.610;9.334;2022-12-26T07:40:38;98055.88;;;9.34;90.52
60589;BME280;46421;48.610;9.334;2022-12-26T07:43:03;98054.22;;;9.42;90.07
60589;BME280;46421;48.610;9.334;2022-12-26T07:45:29;98054.56;;;9.47;89.29
60589;BME280;46421;48.610;9.334;2022-12-26T07:47:55;98055.72;;;9.44;89.93
60589;BME280;46421;48.610;9.334;2022-12-26T07:50:22;98060.56;;;9.32;90.67
60589;BME280;46421;48.610;9.334;2022-12-26T07:52:47;98059.03;;;9.22;91.26
60589;BME280;46421;48.610;9.334;2022-12-26T07:55:13;98061.19;;;9.26;90.70
60589;BME280;46421;48.610;9.334;2022-12-26T07:57:38;98069.66;;;9.22;90.90
60589;BME280;46421;48.610;9.334;2022-12-26T08:00:04;98073.16;;;9.14;92.67
60589;BME280;46421;48.610;9.334;2022-12-26T08:02:30;98072.16;;;9.15;92.72
60589;BME280;46421;48.610;9.334;2022-12-26T08:04:55;98081.91;;;9.14;93.47
60589;BME280;46421;48.610;9.334;2022-12-26T08:07:21;98083.25;;;9.18;92.47
60589;BME280;46421;48.610;9.334;2022-12-26T08:09:46;98076.47;;;9.16;92.34
60589;BME280;46421;48.610;9.334;2022-12-26T08:12:11;98078.78;;;9.27;90.90
60589;BME280;46421;48.610;9.334;2022-12-26T08:14:38;98079.75;;;9.26;93.22
60589;BME280;46421;48.610;9.334;2022-12-26T08:17:03;98085.41;;;9.07;96.80
60589;BME280;46421;48.610;9.334;2022-12-26T08:19:29;98089.91;;;8.90;100.00
60589;BME280;46421;48.610;9.334;2022-12-26T08:21:54;98087.72;;;8.77;100.00
60589;BME280;46421;48.610;9.334;2022-12-26T08:24:20;98088.00;;;8.57;100.00
60589;BME280;46421;48.610;9.334;2022-12-26T08:26:45;98081.34;;;8.45;100.00
60589;BME280;46421;48.610;9.334;2022-12-26T08:29:10;98085.13;;;8.34;100.00
60589;BME280;46421;48.610;9.334;2022-12-26T08:31:36;98092.34;;;8.23;100.00
60589;BME280;46421;48.610;9.334;2022-12-26T08:34:01;98090.50;;;8.07;100.00
60589;BME280;46421;48.610;9.334;2022-12-26T08:36:27;98085.97;;;8.00;100.00
60589;BME280;46421;48.610;9.334;2022-12-26T08:38:52;98077.03;;;8.01;100.00
60589;BME280;46421;48.610;9.334;2022-12-26T08:41:18;98083.31;;;8.00;100.00
60589;BME280;46421;48.610;9.334;2022-12-26T08:43:47;98086.56;;;8.20;100.00
60589;BME280;46421;48.610;9.334;2022-12-26T08:46:13;98094.59;;;8.02;100.00
60589;BME280;46421;48.610;9.334;2022-12-26T08:48:39;98106.94;;;7.85;100.00
60589;BME280;46421;48.610;9.334;2022-12-26T08:51:07;98121.63;;;7.79;100.00
60589;BME280;46421;48.610;9.334;2022-12-26T08:53:34;98134.63;;;7.72;100.00
60589;BME280;46421;48.610;9.334;2022-12-26T08:56:02;98134.13;;;7.69;100.00
60589;BME280;46421;48.610;9.334;2022-12-26T08:58:28;98136.75;;;7.69;100.00
60589;BME280;46421;48.610;9.334;2022-12-26T09:00:54;98145.84;;;7.66;100.00
60589;BME280;46421;48.610;9.334;2022-12-26T09:03:19;98146.13;;;7.63;100.00
60589;BME280;46421;48.610;9.334;2022-12-26T09:05:45;98171.63;;;7.64;100.00
60589;BME280;46421;48.610;9.334;2022-12-26T09:08:11;98157.69;;;7.62;100.00
60589;BME280;46421;48.610;9.334;2022-12-26T09:10:36;98174.25;;;7.64;100.00
60589;BME280;46421;48.610;9.334;2022-12-26T09:13:02;98181.28;;;7.73;100.00
60589;BME280;46421;48.610;9.334;2022-12-26T09:15:27;98179.56;;;7.90;100.00
60589;BME280;46421;48.610;9.334;2022-12-26T09:17:53;98178.44;;;7.93;100.00
60589;BME280;46421;48.610;9.334;2022-12-26T09:20:18;98180.75;;;7.96;100.00
60589;BME280;46421;48.610;9.334;2022-12-26T09:22:43;98174.94;;;7.93;100.00
60589;BME280;46421;48.610;9.334;2022-12-26T09:25:20;98174.44;;;7.89;100.00
60589;BME280;46421;48.610;9.334;2022-12-26T09:27:47;98171.50;;;7.92;100.00
60589;BME280;46421;48.610;9.334;2022-12-26T09:30:12;98167.19;;;7.91;100.00
60589;BME280;46421;48.610;9.334;2022-12-26T09:32:38;98174.13;;;7.92;100.00
60589;BME280;46421;48.610;9.334;2022-12-26T09:35:04;98184.72;;;7.92;100.00
60589;BME280;46421;48.610;9.334;2022-12-26T09:37:30;98187.25;;;8.02;100.00
60589;BME280;46421;48.610;9.334;2022-12-26T09:39:56;98196.75;;;8.13;100.00
60589;BME280;46421;48.610;9.334;2022-12-26T09:42:31;98203.03;;;8.12;100.00
60589;BME280;46421;48.610;9.334;2022-12-26T09:52:48;98226.38;;;7.90;100.00
60589;BME280;46421;48.610;9.334;2022-12-26T09:58:28;98241.31;;;7.73;100.00
60589;BME280;46421;48.610;9.334;2022-12-26T10:03:49;98233.75;;;7.78;100.00
60589;BME280;46421;48.610;9.334;2022-12-26T10:06:17;98237.28;;;7.87;100.00
60589;BME280;46421;48.610;9.334;2022-12-26T10:09:10;98239.63;;;7.90;100.00
60589;BME280;46421;48.610;9.334;2022-12-26T10:11:44;98242.63;;;7.95;100.00
60589;BME280;46421;48.610;9.334;2022-12-26T10:14:43;98246.25;;;7.94;100.00
60589;BME280;46421;48.610;9.334;2022-12-26T10:25:42;98252.91;;;7.98;100.00
60589;BME280;46421;48.610;9.334;2022-12-26T10:28:33;98254.59;;;7.99;100.00
60589;BME280;46421;48.610;9.334;2022-12-26T10:31:05;98267.03;;;8.07;100.00
60589;BME280;46421;48.610;9.334;2022-12-26T10:33:54;98274.28;;;8.05;100.00
60589;BME280;46421;48.610;9.334;2022-12-26T10:36:35;98271.50;;;8.06;100.00
60589;BME280;46421;48.610;9.334;2022-12-26T10:39:03;98279.97;;;8.10;100.00
60589;BME280;46421;48.610;9.334;2022-12-26T10:41:45;98295.25;;;8.16;100.00
60589;BME280;46421;48.610;9.334;2022-12-26T10:44:11;98307.84;;;7.96;100.00
60589;BME280;46421;48.610;9.334;2022-12-26T10:46:50;98315.25;;;7.74;100.00
60589;BME280;46421;48.610;9.334;2022-12-26T10:49:22;98308.31;;;7.73;100.00
60589;BME280;46421;48.610;9.334;2022-12-26T10:51:50;98305.25;;;8.04;100.00
60589;BME280;46421;48.610;9.334;2022-12-26T10:54:16;98308.78;;;8.13;100.00
60589;BME280;46421;48.610;9.334;2022-12-26T10:56:44;98311.81;;;8.18;100.00
60589;BME280;46421;48.610;9.334;2022-12-26T10:59:15;98306.53;;;8.18;100.00
60589;BME280;46421;48.610;9.334;2022-12-26T11:01:41;98320.28;;;8.22;100.00
60589;BME280;46421;48.610;9.334;2022-12-26T11:04:21;98338.41;;;8.35;100.00
60589;BME280;46421;48.610;9.334;2022-12-26T11:06:49;98335.84;;;8.43;100.00
60589;BME280;46421;48.610;9.334;2022-12-26T11:09:39;98329.97;;;8.58;100.00
60589;BME280;46421;48.610;9.334;2022-12-26T11:14:47;98315.34;;;8.80;100.00
60589;BME280;46421;48.610;9.334;2022-12-26T11:17:24;98304.41;;;8.75;100.00
60589;BME280;46421;48.610;9.334;2022-12-26T11:20:09;98299.69;;;8.60;100.00
60589;BME280;46421;48.610;9.334;2022-12-26T11:22:35;98300.03;;;8.65;100.00
60589;BME280;46421;48.610;9.334;2022-12-26T11:27:32;98288.50;;;8.75;100.00
60589;BME280;46421;48.610;9.334;2022-12-26T11:32:39;98262.38;;;8.96;100.00
60589;BME280;46421;48.610;9.334;2022-12-26T11:35:06;98261.09;;;9.00;100.00
60589;BME280;46421;48.610;9.334;2022-12-26T11:37:43;98251.63;;;8.90;100.00
60589;BME280;46421;48.610;9.334;2022-12-26T11:40:36;98255.09;;;8.90;100.00
60589;BME280;46421;48.610;9.334;2022-12-26T11:43:05;98262.34;;;8.88;100.00
60589;BME280;46421;48.610;9.334;2022-12-26T11:45:37;98266.38;;;8.92;100.00
60589;BME280;46421;48.610;9.334;2022-12-26T11:48:17;98274.66;;;8.97;100.00
60589;BME280;46421;48.610;9.334;2022-12-26T11:50:45;98281.19;;;9.11;100.00
60589;BME280;46421;48.610;9.334;2022-12-26T11:53:15;98283.81;;;9.03;100.00
60589;BME280;46421;48.610;9.334;2022-12-26T11:55:41;98282.63;;;8.97;100.00
60589;BME280;46421;48.610;9.334;2022-12-26T12:01:05;98278.78;;;8.92;100.00
60589;BME280;46421;48.610;9.334;2022-12-26T12:03:36;98267.34;;;8.91;100.00
60589;BME280;46421;48.610;9.334;2022-12-26T12:06:26;98257.09;;;8.96;100.00
60589;BME280;46421;48.610;9.334;2022-12-26T12:09:22;98254.91;;;8.92;100.00
60589;BME280;46421;48.610;9.334;2022-12-26T12:12:10;98232.22;;;8.97;100.00
60589;BME280;46421;48.610;9.334;2022-12-26T12:15:34;98227.25;;;8.94;100.00
60589;BME280;46421;48.610;9.334;2022-12-26T12:18:16;98236.72;;;8.97;100.00
60589;BME280;46421;48.610;9.334;2022-12-26T12:23:27;98248.44;;;8.94;100.00
60589;BME280;46421;48.610;9.334;2022-12-26T12:26:07;98255.75;;;8.92;100.00
60589;BME280;46421;48.610;9.334;2022-12-26T12:28:44;98274.16;;;8.94;100.00
60589;BME280;46421;48.610;9.334;2022-12-26T12:31:40;98275.63;;;8.88;100.00
60589;BME280;46421;48.610;9.334;2022-12-26T12:34:30;98263.69;;;8.84;100.00
60589;BME280;46421;48.610;9.334;2022-12-26T12:40:06;98241.47;;;8.77;100.00
60589;BME280;46421;48.610;9.334;2022-12-26T12:42:50;98240.41;;;8.61;100.00
60589;BME280;46421;48.610;9.334;2022-12-26T12:45:24;98255.63;;;8.59;100.00
60589;BME280;46421;48.610;9.334;2022-12-26T12:51:18;98235.75;;;8.63;100.00
60589;BME280;46421;48.610;9.334;2022-12-26T12:57:03;98255.31;;;8.62;100.00
60589;BME280;46421;48.610;9.334;2022-12-26T12:59:51;98270.53;;;8.60;100.00
60589;BME280;46421;48.610;9.334;2022-12-26T13:02:32;98257.13;;;8.62;100.00
60589;BME280;46421;48.610;9.334;2022-12-26T13:11:09;98243.69;;;8.55;100.00
60589;BME280;46421;48.610;9.334;2022-12-26T13:13:42;98246.47;;;8.53;100.00
60589;BME280;46421;48.610;9.334;2022-12-26T13:16:24;98248.78;;;8.48;100.00
60589;BME280;46421;48.610;9.334;2022-12-26T13:18:55;98248.44;;;8.51;100.00
60589;BME280;46421;48.610;9.334;2022-12-26T13:21:23;98247.97;;;8.56;100.00
60589;BME280;46421;48.610;9.334;2022-12-26T13:24:18;98251.66;;;8.55;100.00
60589;BME280;46421;48.610;9.334;2022-12-26T13:31:48;98244.31;;;8.49;100.00
60589;BME280;46421;48.610;9.334;2022-12-26T13:34:17;98237.72;;;8.53;100.00
60589;BME280;46421;48.610;9.334;2022-12-26T13:39:15;98183.38;;;8.49;100.00
60589;BME280;46421;48.610;9.334;2022-12-26T13:41:53;98176.03;;;8.43;100.00
60589;BME280;46421;48.610;9.334;2022-12-26T13:44:38;98191.63;;;8.46;100.00
60589;BME280;46421;48.610;9.334;2022-12-26T13:47:04;98195.56;;;8.42;100.00
60589;BME280;46421;48.610;9.334;2022-12-26T13:49:37;98217.25;;;8.45;100.00
60589;BME280;46421;48.610;9.334;2022-12-26T13:57:22;98241.69;;;8.57;100.00
60589;BME280;46421;48.610;9.334;2022-12-26T14:08:05;98204.41;;;8.50;100.00
60589;BME280;46421;48.610;9.334;2022-12-26T14:16:35;98201.53;;;8.44;100.00
60589;BME280;46421;48.610;9.334;2022-12-26T14:19:40;98201.59;;;8.52;100.00
60589;BME280;46421;48.610;9.334;2022-12-26T14:22:18;98194.41;;;8.44;100.00
60589;BME280;46421;48.610;9.334;2022-12-26T14:25:15;98203.91;;;8.47;100.00
60589;BME280;46421;48.610;9.334;2022-12-26T14:27:58;98203.38;;;8.43;100.00
60589;BME280;46421;48.610;9.334;2022-12-26T14:33:27;98203.16;;;8.36;100.00
60589;BME280;46421;48.610;9.334;2022-12-26T14:36:22;98198.03;;;8.35;100.00
60589;BME280;46421;48.610;9.334;2022-12-26T14:44:58;98198.19;;;8.42;100.00
60589;BME280;46421;48.610;9.334;2022-12-26T14:51:22;98204.97;;;8.36;100.00
60589;BME280;46421;48.610;9.334;2022-12-26T14:55:49;98194.03;;;8.31;100.00
60589;BME280;46421;48.610;9.334;2022-12-26T14:58:29;98198.94;;;8.17;100.00
60589;BME280;46421;48.610;9.334;2022-12-26T15:06:44;98189.53;;;8.23;100.00
60589;BME280;46421;48.610;9.334;2022-12-26T15:15:24;98189.38;;;8.25;100.00
60589;BME280;46421;48.610;9.334;2022-12-26T15:18:37;98174.28;;;8.25;100.00
60589;BME280;46421;48.610;9.334;2022-12-26T15:21:46;98169.66;;;8.27;100.00
60589;BME280;46421;48.610;9.334;2022-12-26T15:30:16;98192.25;;;8.13;100.00
60589;BME280;46421;48.610;9.334;2022-12-26T15:32:55;98179.91;;;8.22;100.00
60589;BME280;46421;48.610;9.334;2022-12-26T15:35:30;98181.94;;;8.28;100.00
60589;BME280;46421;48.610;9.334;2022-12-26T15:38:20;98173.06;;;8.46;100.00
60589;BME280;46421;48.610;9.334;2022-12-26T15:41:11;98179.06;;;8.48;100.00
60589;BME280;46421;48.610;9.334;2022-12-26T15:43:52;98182.44;;;8.66;100.00
60589;BME280;46421;48.610;9.334;2022-12-26T15:46:29;98200.31;;;8.64;100.00
60589;BME280;46421;48.610;9.334;2022-12-26T15:49:11;98195.00;;;8.64;100.00
60589;BME280;46421;48.610;9.334;2022-12-26T15:55:01;98187.19;;;8.54;100.00
60589;BME280;46421;48.610;9.334;2022-12-26T16:00:22;98205.28;;;8.59;100.00
60589;BME280;46421;48.610;9.334;2022-12-26T16:05:54;98195.22;;;8.71;100.00
60589;BME280;46421;48.610;9.334;2022-12-26T16:11:20;98200.31;;;8.64;100.00
60589;BME280;46421;48.610;9.334;2022-12-26T16:13:59;98201.59;;;8.52;100.00